sensor_id;sensor_type;location;lat;lon;timestamp;temperature;humidity
13482;DHT22;6813;60.352;15.746;2023-04-29T00:01:07;4.60;99.90
13482;DHT22;6813;60.352;15.746;2023-04-29T00:03:33;4.50;99.90
13482;DHT22;6813;60.352;15.746;2023-04-29T00:05:59;4.60;99.90
13482;DHT22;6813;60.352;15.746;2023-04-29T00:08:26;4.70;99.90
13482;DHT22;6813;60.352;15.746;2023-04-29T00:10:51;4.70;99.90
13482;DHT22;6813;60.352;15.746;2023-04-29T00:13:17;4.70;99.90
13482;DHT22;6813;60.352;15.746;2023-04-29T00:15:43;4.50;99.90
13482;DHT22;6813;60.352;15.746;2023-04-29T00:18:09;4.50;99.90
13482;DHT22;6813;60.352;15.746;2023-04-29T00:20:35;4.30;99.90
13482;DHT22;6813;60.352;15.746;2023-04-29T00:23:04;4.10;99.90
13482;DHT22;6813;60.352;15.746;2023-04-29T00:25:30;3.90;99.90
13482;DHT22;6813;60.352;15.746;2023-04-29T00:27:56;3.80;99.90
13482;DHT22;6813;60.352;15.746;2023-04-29T00:30:26;3.80;99.90
13482;DHT22;6813;60.352;15.746;2023-04-29T00:32:53;3.80;99.90
13482;DHT22;6813;60.352;15.746;2023-04-29T00:35:20;3.80;99.90
13482;DHT22;6813;60.352;15.746;2023-04-29T00:37:45;3.90;99.90
13482;DHT22;6813;60.352;15.746;2023-04-29T00:40:57;4.00;99.90
13482;DHT22;6813;60.352;15.746;2023-04-29T00:43:08;3.90;99.90
13482;DHT22;6813;60.352;15.746;2023-04-29T00:45:33;3.80;99.90
13482;DHT22;6813;60.352;15.746;2023-04-29T00:48:11;3.80;99.90
13482;DHT22;6813;60.352;15.746;2023-04-29T00:50:37;4.00;99.90
13482;DHT22;6813;60.352;15.746;2023-04-29T00:53:03;4.10;99.90
13482;DHT22;6813;60.352;15.746;2023-04-29T00:55:29;4.00;99.90
13482;DHT22;6813;60.352;15.746;2023-04-29T00:57:59;4.10;99.90
13482;DHT22;6813;60.352;15.746;2023-04-29T01:00:25;4.10;99.90
13482;DHT22;6813;60.352;15.746;2023-04-29T01:02:52;4.10;99.90
13482;DHT22;6813;60.352;15.746;2023-04-29T01:05:22;4.00;99.90
13482;DHT22;6813;60.352;15.746;2023-04-29T01:10:28;3.80;99.90
13482;DHT22;6813;60.352;15.746;2023-04-29T01:16:01;3.80;99.90
13482;DHT22;6813;60.352;15.746;2023-04-29T01:18:40;4.00;99.90
13482;DHT22;6813;60.352;15.746;2023-04-29T01:21:07;3.80;99.90
13482;DHT22;6813;60.352;15.746;2023-04-29T01:23:33;3.60;99.90
13482;DHT22;6813;60.352;15.746;2023-04-29T01:25:59;3.40;99.90
13482;DHT22;6813;60.352;15.746;2023-04-29T01:33:50;3.40;99.90
13482;DHT22;6813;60.352;15.746;2023-04-29T01:42:54;3.30;99.90
13482;DHT22;6813;60.352;15.746;2023-04-29T01:44:54;3.30;99.90
13482;DHT22;6813;60.352;15.746;2023-04-29T01:47:21;3.20;99.90
13482;DHT22;6813;60.352;15.746;2023-04-29T01:49:48;3.00;99.90
13482;DHT22;6813;60.352;15.746;2023-04-29T01:52:14;3.00;99.90
13482;DHT22;6813;60.352;15.746;2023-04-29T01:54:42;3.00;99.90
13482;DHT22;6813;60.352;15.746;2023-04-29T01:57:10;3.00;99.90
13482;DHT22;6813;60.352;15.746;2023-04-29T01:59:37;3.00;99.90
13482;DHT22;6813;60.352;15.746;2023-04-29T02:02:02;2.90;99.90
13482;DHT22;6813;60.352;15.746;2023-04-29T02:04:28;3.00;99.90
13482;DHT22;6813;60.352;15.746;2023-04-29T02:07:04;3.10;99.90
13482;DHT22;6813;60.352;15.746;2023-04-29T02:09:29;3.10;99.90
13482;DHT22;6813;60.352;15.746;2023-04-29T02:11:55;3.20;99.90
13482;DHT22;6813;60.352;15.746;2023-04-29T02:14:21;3.20;99.90
13482;DHT22;6813;60.352;15.746;2023-04-29T02:16:47;3.10;99.90
13482;DHT22;6813;60.352;15.746;2023-04-29T02:19:13;3.10;99.90
13482;DHT22;6813;60.352;15.746;2023-04-29T02:21:38;3.10;99.90
13482;DHT22;6813;60.352;15.746;2023-04-29T02:24:05;3.00;99.90
13482;DHT22;6813;60.352;15.746;2023-04-29T02:26:31;2.90;99.90
13482;DHT22;6813;60.352;15.746;2023-04-29T02:28:58;2.90;99.90
13482;DHT22;6813;60.352;15.746;2023-04-29T02:31:24;2.90;99.90
13482;DHT22;6813;60.352;15.746;2023-04-29T02:33:50;2.90;99.90
13482;DHT22;6813;60.352;15.746;2023-04-29T02:36:16;2.90;99.90
13482;DHT22;6813;60.352;15.746;2023-04-29T02:38:43;3.00;99.90
13482;DHT22;6813;60.352;15.746;2023-04-29T02:41:08;2.90;99.90
13482;DHT22;6813;60.352;15.746;2023-04-29T02:43:34;2.90;99.90
13482;DHT22;6813;60.352;15.746;2023-04-29T02:46:00;2.90;99.90
13482;DHT22;6813;60.352;15.746;2023-04-29T02:48:26;2.80;99.90
13482;DHT22;6813;60.352;15.746;2023-04-29T02:50:52;2.60;99.90
13482;DHT22;6813;60.352;15.746;2023-04-29T02:53:20;2.60;99.90
13482;DHT22;6813;60.352;15.746;2023-04-29T02:55:46;2.70;99.90
13482;DHT22;6813;60.352;15.746;2023-04-29T02:58:12;2.70;99.90
13482;DHT22;6813;60.352;15.746;2023-04-29T03:00:40;2.70;99.90
13482;DHT22;6813;60.352;15.746;2023-04-29T03:03:06;2.70;99.90
13482;DHT22;6813;60.352;15.746;2023-04-29T03:05:32;2.80;99.90
13482;DHT22;6813;60.352;15.746;2023-04-29T03:07:59;2.80;99.90
13482;DHT22;6813;60.352;15.746;2023-04-29T03:10:24;2.80;99.90
13482;DHT22;6813;60.352;15.746;2023-04-29T03:12:50;2.60;99.90
13482;DHT22;6813;60.352;15.746;2023-04-29T03:15:16;2.30;99.90
13482;DHT22;6813;60.352;15.746;2023-04-29T03:17:41;2.20;99.90
13482;DHT22;6813;60.352;15.746;2023-04-29T03:20:10;2.30;99.90
13482;DHT22;6813;60.352;15.746;2023-04-29T03:22:36;2.30;99.90
13482;DHT22;6813;60.352;15.746;2023-04-29T03:25:02;2.30;99.90
13482;DHT22;6813;60.352;15.746;2023-04-29T03:27:28;2.20;99.90
13482;DHT22;6813;60.352;15.746;2023-04-29T03:29:53;2.40;99.90
13482;DHT22;6813;60.352;15.746;2023-04-29T03:32:19;2.60;99.90
13482;DHT22;6813;60.352;15.746;2023-04-29T03:34:45;2.70;99.90
13482;DHT22;6813;60.352;15.746;2023-04-29T03:37:10;2.90;99.90
13482;DHT22;6813;60.352;15.746;2023-04-29T03:39:36;3.00;99.90
13482;DHT22;6813;60.352;15.746;2023-04-29T03:42:02;2.90;99.90
13482;DHT22;6813;60.352;15.746;2023-04-29T03:44:29;2.90;99.90
13482;DHT22;6813;60.352;15.746;2023-04-29T03:46:54;2.70;99.90
13482;DHT22;6813;60.352;15.746;2023-04-29T03:49:20;2.60;99.90
13482;DHT22;6813;60.352;15.746;2023-04-29T03:51:46;2.60;99.90
13482;DHT22;6813;60.352;15.746;2023-04-29T03:54:12;2.70;99.90
13482;DHT22;6813;60.352;15.746;2023-04-29T03:56:38;2.70;99.90
13482;DHT22;6813;60.352;15.746;2023-04-29T03:59:04;2.80;99.90
13482;DHT22;6813;60.352;15.746;2023-04-29T04:01:29;2.90;99.90
13482;DHT22;6813;60.352;15.746;2023-04-29T04:03:55;3.00;99.90
13482;DHT22;6813;60.352;15.746;2023-04-29T04:06:21;3.10;99.90
13482;DHT22;6813;60.352;15.746;2023-04-29T04:08:47;3.20;99.90
13482;DHT22;6813;60.352;15.746;2023-04-29T04:11:12;3.20;99.90
13482;DHT22;6813;60.352;15.746;2023-04-29T04:13:40;3.20;99.90
13482;DHT22;6813;60.352;15.746;2023-04-29T04:16:08;3.40;99.90
13482;DHT22;6813;60.352;15.746;2023-04-29T04:18:38;3.40;99.90
13482;DHT22;6813;60.352;15.746;2023-04-29T04:21:10;3.50;99.90
13482;DHT22;6813;60.352;15.746;2023-04-29T04:23:37;3.50;99.90
13482;DHT22;6813;60.352;15.746;2023-04-29T04:26:05;3.60;99.90
13482;DHT22;6813;60.352;15.746;2023-04-29T04:28:31;3.50;99.90
13482;DHT22;6813;60.352;15.746;2023-04-29T04:30:56;3.60;99.90
13482;DHT22;6813;60.352;15.746;2023-04-29T04:33:23;3.60;99.90
13482;DHT22;6813;60.352;15.746;2023-04-29T04:35:49;3.70;99.90
13482;DHT22;6813;60.352;15.746;2023-04-29T04:38:15;3.70;99.90
13482;DHT22;6813;60.352;15.746;2023-04-29T04:40:41;3.80;99.90
13482;DHT22;6813;60.352;15.746;2023-04-29T04:43:07;4.00;99.90
13482;DHT22;6813;60.352;15.746;2023-04-29T04:45:32;4.10;99.90
13482;DHT22;6813;60.352;15.746;2023-04-29T04:47:58;4.30;99.90
13482;DHT22;6813;60.352;15.746;2023-04-29T04:50:27;4.60;99.90
13482;DHT22;6813;60.352;15.746;2023-04-29T04:52:54;5.00;99.90
13482;DHT22;6813;60.352;15.746;2023-04-29T04:55:20;5.40;99.90
13482;DHT22;6813;60.352;15.746;2023-04-29T04:57:46;5.80;99.90
13482;DHT22;6813;60.352;15.746;2023-04-29T05:00:12;6.20;99.90
13482;DHT22;6813;60.352;15.746;2023-04-29T05:02:37;6.40;99.90
13482;DHT22;6813;60.352;15.746;2023-04-29T05:05:03;6.50;99.90
13482;DHT22;6813;60.352;15.746;2023-04-29T05:07:29;6.80;99.90
13482;DHT22;6813;60.352;15.746;2023-04-29T05:09:55;6.90;99.90
13482;DHT22;6813;60.352;15.746;2023-04-29T05:12:20;6.90;99.90
13482;DHT22;6813;60.352;15.746;2023-04-29T05:14:46;6.90;99.90
13482;DHT22;6813;60.352;15.746;2023-04-29T05:17:12;6.90;99.90
13482;DHT22;6813;60.352;15.746;2023-04-29T05:19:37;6.90;99.90
13482;DHT22;6813;60.352;15.746;2023-04-29T05:22:03;7.00;99.90
13482;DHT22;6813;60.352;15.746;2023-04-29T05:24:28;7.10;99.90
13482;DHT22;6813;60.352;15.746;2023-04-29T05:26:54;7.20;99.90
13482;DHT22;6813;60.352;15.746;2023-04-29T05:29:20;7.20;99.90
13482;DHT22;6813;60.352;15.746;2023-04-29T05:31:46;7.30;99.90
13482;DHT22;6813;60.352;15.746;2023-04-29T05:34:12;7.50;99.90
13482;DHT22;6813;60.352;15.746;2023-04-29T05:36:38;7.70;99.90
13482;DHT22;6813;60.352;15.746;2023-04-29T05:39:03;7.80;99.90
13482;DHT22;6813;60.352;15.746;2023-04-29T05:41:29;8.00;99.90
13482;DHT22;6813;60.352;15.746;2023-04-29T05:43:55;8.30;99.90
13482;DHT22;6813;60.352;15.746;2023-04-29T05:46:20;8.40;99.90
13482;DHT22;6813;60.352;15.746;2023-04-29T05:48:47;8.50;99.90
13482;DHT22;6813;60.352;15.746;2023-04-29T05:51:13;8.20;98.70
13482;DHT22;6813;60.352;15.746;2023-04-29T05:53:39;7.90;98.70
13482;DHT22;6813;60.352;15.746;2023-04-29T05:56:05;7.80;99.30
13482;DHT22;6813;60.352;15.746;2023-04-29T05:58:33;7.70;98.10
13482;DHT22;6813;60.352;15.746;2023-04-29T06:00:59;7.70;99.90
13482;DHT22;6813;60.352;15.746;2023-04-29T06:03:25;7.60;99.30
13482;DHT22;6813;60.352;15.746;2023-04-29T06:05:51;7.60;99.40
13482;DHT22;6813;60.352;15.746;2023-04-29T06:08:18;7.70;99.90
13482;DHT22;6813;60.352;15.746;2023-04-29T06:10:44;7.90;99.90
13482;DHT22;6813;60.352;15.746;2023-04-29T06:13:10;8.00;99.60
13482;DHT22;6813;60.352;15.746;2023-04-29T06:15:36;8.10;99.90
13482;DHT22;6813;60.352;15.746;2023-04-29T06:18:02;8.20;99.00
13482;DHT22;6813;60.352;15.746;2023-04-29T06:20:28;8.30;98.60
13482;DHT22;6813;60.352;15.746;2023-04-29T06:22:54;8.30;99.50
13482;DHT22;6813;60.352;15.746;2023-04-29T06:25:21;8.40;98.80
13482;DHT22;6813;60.352;15.746;2023-04-29T06:27:47;8.60;98.60
13482;DHT22;6813;60.352;15.746;2023-04-29T06:30:13;8.70;97.80
13482;DHT22;6813;60.352;15.746;2023-04-29T06:32:42;8.70;97.80
13482;DHT22;6813;60.352;15.746;2023-04-29T06:35:09;8.90;97.90
13482;DHT22;6813;60.352;15.746;2023-04-29T06:37:34;9.10;98.10
13482;DHT22;6813;60.352;15.746;2023-04-29T06:40:00;9.10;97.30
13482;DHT22;6813;60.352;15.746;2023-04-29T06:42:26;9.30;97.00
13482;DHT22;6813;60.352;15.746;2023-04-29T06:44:52;9.40;96.10
13482;DHT22;6813;60.352;15.746;2023-04-29T06:47:18;9.30;94.60
13482;DHT22;6813;60.352;15.746;2023-04-29T06:49:44;9.40;94.00
13482;DHT22;6813;60.352;15.746;2023-04-29T06:52:10;9.50;93.10
13482;DHT22;6813;60.352;15.746;2023-04-29T06:54:36;9.40;91.70
13482;DHT22;6813;60.352;15.746;2023-04-29T06:57:01;9.00;92.00
13482;DHT22;6813;60.352;15.746;2023-04-29T06:59:27;8.90;92.00
13482;DHT22;6813;60.352;15.746;2023-04-29T07:01:53;9.00;93.30
13482;DHT22;6813;60.352;15.746;2023-04-29T07:04:19;9.20;93.90
13482;DHT22;6813;60.352;15.746;2023-04-29T07:06:44;9.40;94.70
13482;DHT22;6813;60.352;15.746;2023-04-29T07:09:12;9.60;95.20
13482;DHT22;6813;60.352;15.746;2023-04-29T07:11:40;9.90;94.40
13482;DHT22;6813;60.352;15.746;2023-04-29T07:14:06;10.00;91.10
13482;DHT22;6813;60.352;15.746;2023-04-29T07:16:32;9.80;90.90
13482;DHT22;6813;60.352;15.746;2023-04-29T07:18:59;9.80;92.50
13482;DHT22;6813;60.352;15.746;2023-04-29T07:21:25;10.00;92.50
13482;DHT22;6813;60.352;15.746;2023-04-29T07:23:51;10.20;92.30
13482;DHT22;6813;60.352;15.746;2023-04-29T07:26:17;10.50;92.00
13482;DHT22;6813;60.352;15.746;2023-04-29T07:28:44;10.60;91.50
13482;DHT22;6813;60.352;15.746;2023-04-29T07:31:10;10.80;91.40
13482;DHT22;6813;60.352;15.746;2023-04-29T07:33:39;10.90;91.10
13482;DHT22;6813;60.352;15.746;2023-04-29T07:36:05;10.80;89.60
13482;DHT22;6813;60.352;15.746;2023-04-29T07:38:32;10.90;87.80
13482;DHT22;6813;60.352;15.746;2023-04-29T07:40:58;11.10;88.10
13482;DHT22;6813;60.352;15.746;2023-04-29T07:43:24;11.10;87.80
13482;DHT22;6813;60.352;15.746;2023-04-29T07:45:49;11.20;89.20
13482;DHT22;6813;60.352;15.746;2023-04-29T07:48:15;11.30;87.00
13482;DHT22;6813;60.352;15.746;2023-04-29T07:50:41;11.10;86.10
13482;DHT22;6813;60.352;15.746;2023-04-29T07:53:08;11.30;88.30
13482;DHT22;6813;60.352;15.746;2023-04-29T07:55:36;11.40;87.40
13482;DHT22;6813;60.352;15.746;2023-04-29T07:58:22;11.50;88.90
13482;DHT22;6813;60.352;15.746;2023-04-29T08:00:48;11.60;88.90
13482;DHT22;6813;60.352;15.746;2023-04-29T08:03:14;11.60;86.60
13482;DHT22;6813;60.352;15.746;2023-04-29T08:05:40;11.50;87.90
13482;DHT22;6813;60.352;15.746;2023-04-29T08:08:10;11.50;89.30
13482;DHT22;6813;60.352;15.746;2023-04-29T08:10:37;11.40;89.00
13482;DHT22;6813;60.352;15.746;2023-04-29T08:13:05;11.10;86.20
13482;DHT22;6813;60.352;15.746;2023-04-29T08:15:34;11.00;88.00
13482;DHT22;6813;60.352;15.746;2023-04-29T08:18:03;10.80;88.50
13482;DHT22;6813;60.352;15.746;2023-04-29T08:20:28;11.00;88.70
13482;DHT22;6813;60.352;15.746;2023-04-29T08:22:56;11.00;86.90
13482;DHT22;6813;60.352;15.746;2023-04-29T08:25:25;10.30;84.70
13482;DHT22;6813;60.352;15.746;2023-04-29T08:27:51;9.80;88.80
13482;DHT22;6813;60.352;15.746;2023-04-29T08:30:20;10.00;90.20
13482;DHT22;6813;60.352;15.746;2023-04-29T08:32:46;10.20;91.00
13482;DHT22;6813;60.352;15.746;2023-04-29T08:35:33;10.20;90.10
13482;DHT22;6813;60.352;15.746;2023-04-29T08:37:58;10.20;90.50
13482;DHT22;6813;60.352;15.746;2023-04-29T08:40:25;10.20;89.30
13482;DHT22;6813;60.352;15.746;2023-04-29T08:42:52;9.90;90.00
13482;DHT22;6813;60.352;15.746;2023-04-29T08:45:23;10.00;91.30
13482;DHT22;6813;60.352;15.746;2023-04-29T08:47:50;10.00;90.40
13482;DHT22;6813;60.352;15.746;2023-04-29T08:50:17;9.60;91.10
13482;DHT22;6813;60.352;15.746;2023-04-29T08:52:42;9.60;92.00
13482;DHT22;6813;60.352;15.746;2023-04-29T08:55:08;9.70;92.80
13482;DHT22;6813;60.352;15.746;2023-04-29T08:57:54;9.50;92.40
13482;DHT22;6813;60.352;15.746;2023-04-29T09:00:22;9.00;94.90
13482;DHT22;6813;60.352;15.746;2023-04-29T09:02:50;9.10;96.30
13482;DHT22;6813;60.352;15.746;2023-04-29T09:05:37;9.10;97.10
13482;DHT22;6813;60.352;15.746;2023-04-29T09:08:08;9.30;97.50
13482;DHT22;6813;60.352;15.746;2023-04-29T09:10:38;9.40;97.90
13482;DHT22;6813;60.352;15.746;2023-04-29T09:13:06;9.70;97.20
13482;DHT22;6813;60.352;15.746;2023-04-29T09:15:36;9.80;96.90
13482;DHT22;6813;60.352;15.746;2023-04-29T09:18:02;10.10;95.60
13482;DHT22;6813;60.352;15.746;2023-04-29T09:20:29;10.20;95.80
13482;DHT22;6813;60.352;15.746;2023-04-29T09:22:59;10.50;95.00
13482;DHT22;6813;60.352;15.746;2023-04-29T09:25:26;10.40;93.70
13482;DHT22;6813;60.352;15.746;2023-04-29T09:27:52;10.30;91.30
13482;DHT22;6813;60.352;15.746;2023-04-29T09:30:18;9.80;92.70
13482;DHT22;6813;60.352;15.746;2023-04-29T09:32:45;9.90;93.60
13482;DHT22;6813;60.352;15.746;2023-04-29T09:35:27;10.00;93.30
13482;DHT22;6813;60.352;15.746;2023-04-29T09:38:13;10.10;91.10
13482;DHT22;6813;60.352;15.746;2023-04-29T09:40:40;9.40;91.70
13482;DHT22;6813;60.352;15.746;2023-04-29T09:43:17;9.30;92.30
13482;DHT22;6813;60.352;15.746;2023-04-29T09:45:44;9.30;92.80
13482;DHT22;6813;60.352;15.746;2023-04-29T09:48:10;9.50;94.20
13482;DHT22;6813;60.352;15.746;2023-04-29T09:50:41;9.30;93.00
13482;DHT22;6813;60.352;15.746;2023-04-29T09:53:09;9.20;94.00
13482;DHT22;6813;60.352;15.746;2023-04-29T09:55:36;9.40;94.80
13482;DHT22;6813;60.352;15.746;2023-04-29T09:58:32;9.50;95.30
13482;DHT22;6813;60.352;15.746;2023-04-29T10:01:02;9.70;94.70
13482;DHT22;6813;60.352;15.746;2023-04-29T10:03:37;9.50;94.70
13482;DHT22;6813;60.352;15.746;2023-04-29T10:06:05;9.50;93.50
13482;DHT22;6813;60.352;15.746;2023-04-29T10:08:32;9.70;93.90
13482;DHT22;6813;60.352;15.746;2023-04-29T10:11:02;9.10;92.10
13482;DHT22;6813;60.352;15.746;2023-04-29T10:13:29;8.50;93.50
13482;DHT22;6813;60.352;15.746;2023-04-29T10:18:48;8.00;94.50
13482;DHT22;6813;60.352;15.746;2023-04-29T10:21:17;8.00;94.90
13482;DHT22;6813;60.352;15.746;2023-04-29T10:23:45;7.90;95.70
13482;DHT22;6813;60.352;15.746;2023-04-29T10:26:11;7.90;96.50
13482;DHT22;6813;60.352;15.746;2023-04-29T10:28:39;7.80;96.90
13482;DHT22;6813;60.352;15.746;2023-04-29T10:31:07;7.90;96.90
13482;DHT22;6813;60.352;15.746;2023-04-29T10:33:34;7.90;96.90
13482;DHT22;6813;60.352;15.746;2023-04-29T10:36:02;7.90;97.00
13482;DHT22;6813;60.352;15.746;2023-04-29T10:38:33;7.90;96.60
13482;DHT22;6813;60.352;15.746;2023-04-29T10:41:06;7.90;96.20
13482;DHT22;6813;60.352;15.746;2023-04-29T10:43:32;7.90;96.20
13482;DHT22;6813;60.352;15.746;2023-04-29T10:48:45;8.30;96.60
13482;DHT22;6813;60.352;15.746;2023-04-29T10:51:11;8.30;96.10
13482;DHT22;6813;60.352;15.746;2023-04-29T10:54:12;8.50;97.00
13482;DHT22;6813;60.352;15.746;2023-04-29T10:56:48;8.60;96.70
13482;DHT22;6813;60.352;15.746;2023-04-29T10:59:20;8.70;95.20
13482;DHT22;6813;60.352;15.746;2023-04-29T11:01:50;8.70;96.50
13482;DHT22;6813;60.352;15.746;2023-04-29T11:04:18;8.20;96.10
13482;DHT22;6813;60.352;15.746;2023-04-29T11:06:50;7.70;97.60
13482;DHT22;6813;60.352;15.746;2023-04-29T11:09:40;7.70;98.60
13482;DHT22;6813;60.352;15.746;2023-04-29T11:12:08;8.00;99.60
13482;DHT22;6813;60.352;15.746;2023-04-29T11:17:16;8.20;97.60
13482;DHT22;6813;60.352;15.746;2023-04-29T11:19:44;8.40;97.90
13482;DHT22;6813;60.352;15.746;2023-04-29T11:25:17;8.80;98.70
13482;DHT22;6813;60.352;15.746;2023-04-29T11:27:44;8.90;98.70
13482;DHT22;6813;60.352;15.746;2023-04-29T11:30:13;9.10;97.30
13482;DHT22;6813;60.352;15.746;2023-04-29T11:32:41;9.20;97.40
13482;DHT22;6813;60.352;15.746;2023-04-29T11:35:16;9.20;95.80
13482;DHT22;6813;60.352;15.746;2023-04-29T11:37:45;9.30;95.80
13482;DHT22;6813;60.352;15.746;2023-04-29T11:40:12;9.50;95.80
13482;DHT22;6813;60.352;15.746;2023-04-29T11:42:47;9.50;95.60
13482;DHT22;6813;60.352;15.746;2023-04-29T11:45:13;9.70;94.80
13482;DHT22;6813;60.352;15.746;2023-04-29T11:47:43;9.70;94.90
13482;DHT22;6813;60.352;15.746;2023-04-29T11:50:10;9.80;95.30
13482;DHT22;6813;60.352;15.746;2023-04-29T11:52:38;9.90;94.90
13482;DHT22;6813;60.352;15.746;2023-04-29T11:55:05;9.40;93.60
13482;DHT22;6813;60.352;15.746;2023-04-29T11:57:33;8.90;94.40
13482;DHT22;6813;60.352;15.746;2023-04-29T11:59:59;8.90;96.20
13482;DHT22;6813;60.352;15.746;2023-04-29T12:02:32;9.10;96.70
13482;DHT22;6813;60.352;15.746;2023-04-29T12:04:59;9.20;95.80
13482;DHT22;6813;60.352;15.746;2023-04-29T12:07:27;9.40;95.00
13482;DHT22;6813;60.352;15.746;2023-04-29T12:09:54;9.50;94.50
13482;DHT22;6813;60.352;15.746;2023-04-29T12:12:22;9.50;93.70
13482;DHT22;6813;60.352;15.746;2023-04-29T12:14:48;9.10;93.80
13482;DHT22;6813;60.352;15.746;2023-04-29T12:17:14;8.90;94.00
13482;DHT22;6813;60.352;15.746;2023-04-29T12:19:42;8.80;94.40
13482;DHT22;6813;60.352;15.746;2023-04-29T12:22:09;8.70;96.50
13482;DHT22;6813;60.352;15.746;2023-04-29T12:24:35;8.50;98.20
13482;DHT22;6813;60.352;15.746;2023-04-29T12:27:02;8.60;98.80
13482;DHT22;6813;60.352;15.746;2023-04-29T12:29:30;8.70;99.80
13482;DHT22;6813;60.352;15.746;2023-04-29T12:31:57;8.50;99.90
13482;DHT22;6813;60.352;15.746;2023-04-29T12:34:30;8.60;99.90
13482;DHT22;6813;60.352;15.746;2023-04-29T12:37:00;8.80;99.90
13482;DHT22;6813;60.352;15.746;2023-04-29T12:39:30;8.60;99.90
13482;DHT22;6813;60.352;15.746;2023-04-29T12:42:00;8.70;99.90
13482;DHT22;6813;60.352;15.746;2023-04-29T12:44:35;8.70;99.90
13482;DHT22;6813;60.352;15.746;2023-04-29T12:47:11;8.70;99.90
13482;DHT22;6813;60.352;15.746;2023-04-29T12:49:40;8.60;99.90
13482;DHT22;6813;60.352;15.746;2023-04-29T12:52:07;8.60;99.90
13482;DHT22;6813;60.352;15.746;2023-04-29T12:54:38;8.50;99.90
13482;DHT22;6813;60.352;15.746;2023-04-29T12:57:08;8.50;99.90
13482;DHT22;6813;60.352;15.746;2023-04-29T12:59:35;8.50;99.90
13482;DHT22;6813;60.352;15.746;2023-04-29T13:02:36;8.50;99.90
13482;DHT22;6813;60.352;15.746;2023-04-29T13:05:02;8.40;99.90
13482;DHT22;6813;60.352;15.746;2023-04-29T13:07:28;8.30;99.90
13482;DHT22;6813;60.352;15.746;2023-04-29T13:09:54;8.40;99.90
13482;DHT22;6813;60.352;15.746;2023-04-29T13:12:20;8.50;99.90
13482;DHT22;6813;60.352;15.746;2023-04-29T13:14:46;8.50;99.90
13482;DHT22;6813;60.352;15.746;2023-04-29T13:17:12;8.50;99.90
13482;DHT22;6813;60.352;15.746;2023-04-29T13:19:38;8.60;99.90
13482;DHT22;6813;60.352;15.746;2023-04-29T13:22:04;8.50;99.90
13482;DHT22;6813;60.352;15.746;2023-04-29T13:24:29;8.50;99.90
13482;DHT22;6813;60.352;15.746;2023-04-29T13:26:57;8.30;99.90
13482;DHT22;6813;60.352;15.746;2023-04-29T13:29:23;8.30;99.90
13482;DHT22;6813;60.352;15.746;2023-04-29T13:31:48;8.30;99.90
13482;DHT22;6813;60.352;15.746;2023-04-29T13:34:14;8.40;99.90
13482;DHT22;6813;60.352;15.746;2023-04-29T13:36:40;8.20;99.90
13482;DHT22;6813;60.352;15.746;2023-04-29T13:39:06;7.90;99.90
13482;DHT22;6813;60.352;15.746;2023-04-29T13:41:32;7.90;99.90
13482;DHT22;6813;60.352;15.746;2023-04-29T13:43:59;8.00;99.90
13482;DHT22;6813;60.352;15.746;2023-04-29T13:46:24;7.90;99.90
13482;DHT22;6813;60.352;15.746;2023-04-29T13:48:51;7.80;99.90
13482;DHT22;6813;60.352;15.746;2023-04-29T13:51:17;8.00;99.90
13482;DHT22;6813;60.352;15.746;2023-04-29T13:53:43;7.90;99.90
13482;DHT22;6813;60.352;15.746;2023-04-29T13:56:09;7.90;99.90
13482;DHT22;6813;60.352;15.746;2023-04-29T13:58:35;8.00;99.90
13482;DHT22;6813;60.352;15.746;2023-04-29T14:01:01;7.90;99.90
13482;DHT22;6813;60.352;15.746;2023-04-29T14:03:26;7.80;99.90
13482;DHT22;6813;60.352;15.746;2023-04-29T14:05:52;7.80;99.90
13482;DHT22;6813;60.352;15.746;2023-04-29T14:08:18;7.80;99.90
13482;DHT22;6813;60.352;15.746;2023-04-29T14:10:44;7.70;99.90
13482;DHT22;6813;60.352;15.746;2023-04-29T14:13:10;7.00;99.90
13482;DHT22;6813;60.352;15.746;2023-04-29T14:15:35;6.40;99.90
13482;DHT22;6813;60.352;15.746;2023-04-29T14:18:01;6.60;99.90
13482;DHT22;6813;60.352;15.746;2023-04-29T14:20:27;6.20;99.90
13482;DHT22;6813;60.352;15.746;2023-04-29T14:22:53;5.80;99.90
13482;DHT22;6813;60.352;15.746;2023-04-29T14:25:19;5.80;99.90
13482;DHT22;6813;60.352;15.746;2023-04-29T14:27:44;5.70;99.90
13482;DHT22;6813;60.352;15.746;2023-04-29T14:30:10;5.60;99.90
13482;DHT22;6813;60.352;15.746;2023-04-29T14:32:36;5.70;99.90
13482;DHT22;6813;60.352;15.746;2023-04-29T14:35:02;5.80;99.90
13482;DHT22;6813;60.352;15.746;2023-04-29T14:37:28;5.90;99.90
13482;DHT22;6813;60.352;15.746;2023-04-29T14:39:53;5.90;99.90
13482;DHT22;6813;60.352;15.746;2023-04-29T14:42:20;6.10;99.90
13482;DHT22;6813;60.352;15.746;2023-04-29T14:44:46;5.90;99.90
13482;DHT22;6813;60.352;15.746;2023-04-29T14:47:12;5.60;99.90
13482;DHT22;6813;60.352;15.746;2023-04-29T14:49:37;5.60;99.90
13482;DHT22;6813;60.352;15.746;2023-04-29T14:52:04;5.60;99.90
13482;DHT22;6813;60.352;15.746;2023-04-29T14:54:29;5.90;99.90
13482;DHT22;6813;60.352;15.746;2023-04-29T14:56:56;5.80;99.90
13482;DHT22;6813;60.352;15.746;2023-04-29T14:59:21;5.80;99.90
13482;DHT22;6813;60.352;15.746;2023-04-29T15:01:47;5.60;99.90
13482;DHT22;6813;60.352;15.746;2023-04-29T15:04:13;5.70;99.90
13482;DHT22;6813;60.352;15.746;2023-04-29T15:06:39;5.90;99.90
13482;DHT22;6813;60.352;15.746;2023-04-29T15:09:05;5.80;99.90
13482;DHT22;6813;60.352;15.746;2023-04-29T15:11:31;5.90;99.90
13482;DHT22;6813;60.352;15.746;2023-04-29T15:13:57;6.10;99.90
13482;DHT22;6813;60.352;15.746;2023-04-29T15:16:23;6.10;99.90
13482;DHT22;6813;60.352;15.746;2023-04-29T15:18:49;6.00;99.90
13482;DHT22;6813;60.352;15.746;2023-04-29T15:21:14;5.80;99.90
13482;DHT22;6813;60.352;15.746;2023-04-29T15:23:40;5.70;99.90
13482;DHT22;6813;60.352;15.746;2023-04-29T15:26:06;5.50;99.90
13482;DHT22;6813;60.352;15.746;2023-04-29T15:28:32;5.50;99.90
13482;DHT22;6813;60.352;15.746;2023-04-29T15:30:58;5.70;99.90
13482;DHT22;6813;60.352;15.746;2023-04-29T15:33:26;5.90;99.90
13482;DHT22;6813;60.352;15.746;2023-04-29T15:35:52;6.30;99.90
13482;DHT22;6813;60.352;15.746;2023-04-29T15:38:17;6.40;99.90
13482;DHT22;6813;60.352;15.746;2023-04-29T15:40:43;6.50;99.90
13482;DHT22;6813;60.352;15.746;2023-04-29T15:43:09;6.60;99.90
13482;DHT22;6813;60.352;15.746;2023-04-29T15:45:34;6.60;99.90
13482;DHT22;6813;60.352;15.746;2023-04-29T15:48:00;6.70;99.90
13482;DHT22;6813;60.352;15.746;2023-04-29T15:50:26;6.70;99.90
13482;DHT22;6813;60.352;15.746;2023-04-29T15:52:55;6.80;99.90
13482;DHT22;6813;60.352;15.746;2023-04-29T15:55:23;6.80;99.90
13482;DHT22;6813;60.352;15.746;2023-04-29T15:57:49;6.90;99.90
13482;DHT22;6813;60.352;15.746;2023-04-29T16:00:16;6.80;99.90
13482;DHT22;6813;60.352;15.746;2023-04-29T16:02:42;6.80;99.90
13482;DHT22;6813;60.352;15.746;2023-04-29T16:05:08;6.90;99.90
13482;DHT22;6813;60.352;15.746;2023-04-29T16:07:34;7.00;99.90
13482;DHT22;6813;60.352;15.746;2023-04-29T16:10:00;7.00;99.90
13482;DHT22;6813;60.352;15.746;2023-04-29T16:12:26;7.10;99.90
13482;DHT22;6813;60.352;15.746;2023-04-29T16:14:51;7.00;99.90